Aérodrome :
LOGIN :

S'inscrire | Disclaimer

   EN    FR    IT 

 










Légende :    VFR   VFR Marginal   IFR   IFR Intensif   IFR Très Intensif
Visi : 
Plafond : 
>= 8 km
>= 3000ft
5 à 8 km
1000 à 3000 ft
1500m à 5 km
500 à 1000 ft
800 à 1500m
200 à 500 ft
< 800m
< 200 ft
Symboles :   Orages  Brouillard  Fortes neiges  Fortes précipitations  Vent > 20 kt
SIGMETs :   Divers  Orages  Givrage  Turbulence  Onde Orograph.  Cendres Volcan.







- Altitude de l'aérodrome : 598 ft
- Code IATA : BQH
- Voir les cartes d'approche


EGKB - Biggin Hill

DERNIER METAR :
  • 191120Z 25006KT 230V290 1800 -DZ BR BKN004 08/08 Q1016

METARs EXPIRÉS :
  • 191050Z 25006KT 220V280 2000 -DZ BR BKN003 08/07 Q1016 REDZ
  • 191020Z 24005KT 210V270 1700 DZ BR BKN002 07/07 Q1016
  • 190950Z 23006KT 1900 -DZ BR BKN002 07/07 Q1016
  • 190920Z 22006KT 2000 -DZ BR BKN002 07/07 Q1016
  • 190850Z 21005KT 2000 -DZ BR BKN003 07/07 Q1017

TAF TAF EGKB
Valide du 19 à 12h jusqu'au 19 à 21h UTC


191103Z 1912/1921 18003KT 2000 -DZ BR BKN002
BECMG 1912/1915 33010KT
TEMPO 1912/1915 RADZ BKN005
PROB30
TEMPO 1912/1921 6000
Pas de NOTAMs connus pour ce terrain.



MET'MAP, la Météo Aéronautique d'un coup d'oeil ! - Copyright ORBIFLY Décembre 2007 - Disclaimer

ORBIFLY MET'MAP TEAM :

Programmation & Développement : Alexandra Zaïnal
Conception & Développement : Baudouin d'Aumeries
Co-Programmation & Développement : Marc-Olivier Méhu
Soutien technique & logistique : Manuel Goepfert

Contact : metmap@orbifly.com




SOURCES & CREDITS :

   NOAA